aviador You're here:

ZSSS Decoded Metar

SHANGHAI in CHINA
Report Time2017-03-23 02:00:00
UTC Time2017-03-23 02:19:25
Flight Rules mvfr MVFR
Wind020° at 8 kt
W.Decomp.*RWY 36: 7.3 kt HW 3.4 kt RCW
W.Rank020° ranks 16
Current wind is below 020° avg. (9.1)
Visibility9999 m
Phenomena:N/A
Clouds:Broken 013 Hf
Overcast 040 Hf
Expected CloudBase > 800 ft AGL from Temp-Dew spread
Ceiling1,300 ft
Temp10°C (ISA -5)
Dew Point08°C (88% RH)
AAT6.7°C
QNH1022 hPa
Density Alt-728 ft
Elevation23 ft
Report Wrong Elevation
Raw Report
ZSSS 230200Z 02004MPS 9999 BKN013 OVC040 10/08 Q1022 BECMG TL0240
BKN015=

Extra information for ZSSS:More info

Metar Taf Metar & Taf Last 4 Metars F.Rules Stats Wind Profile Meteogram Temp Stats Airport Information Weather charts Add Link Nearby VenuesMetar ALERT Operation Metar Decoded Social comments